Time;durP1;ratioP1;P1;durP2;ratioP2;P2;SDS_P1;SDS_P2;PMS_P1;PMS_P2;Temp;Humidity;BMP_temperature;BMP_pressure;BME280_temperature;BME280_humidity;BME280_pressure;Samples;Min_cycle;Max_cycle;Signal;HPM_P1;HPM_P2
2022/11/15 00:00:46;;;;;;;71.57;32.10;;;;;;;-145.18;100.00;46664.31;4991625;28;20729;-68
2022/11/15 00:03:14;;;;;;;81.57;30.83;;;;;;;-145.18;100.00;46666.25;4974384;28;20296;-68
2022/11/15 00:05:40;;;;;;;77.63;32.47;;;;;;;-145.18;100.00;46662.34;4991867;28;20054;-68
2022/11/15 00:08:05;;;;;;;71.10;29.07;;;;;;;-145.18;100.00;46662.34;4991910;28;20399;-68
2022/11/15 00:10:30;;;;;;;74.33;32.27;;;;;;;-145.18;100.00;46658.44;4991950;28;20085;-68
2022/11/15 00:12:56;;;;;;;84.47;33.07;;;;;;;-145.18;100.00;46660.41;4991282;28;20480;-68
2022/11/15 00:15:21;;;;;;;83.83;33.70;;;;;;;-145.18;100.00;46658.44;4991856;28;20505;-68
2022/11/15 00:17:49;;;;;;;76.93;33.60;;;;;;;-145.18;100.00;46662.34;4991280;28;20546;-68
2022/11/15 00:20:15;;;;;;;82.73;31.93;;;;;;;-145.18;100.00;46660.41;4991860;28;20030;-68
2022/11/15 00:22:40;;;;;;;76.57;32.57;;;;;;;-145.18;100.00;46660.41;4991145;28;20967;-68
2022/11/15 00:25:06;;;;;;;84.47;33.47;;;;;;;-145.18;100.00;46660.41;4991562;28;20034;-68
2022/11/15 00:27:31;;;;;;;87.20;33.87;;;;;;;-145.18;100.00;46662.34;4985493;28;20495;-68
2022/11/15 00:29:56;;;;;;;89.67;34.90;;;;;;;-145.18;100.00;46656.50;4991502;28;20041;-68
2022/11/15 00:32:22;;;;;;;86.90;33.63;;;;;;;-145.18;100.00;46662.34;4991096;28;20034;-68
2022/11/15 00:34:47;;;;;;;96.37;35.30;;;;;;;-145.18;100.00;46666.25;4991386;28;20069;-68
2022/11/15 00:37:12;;;;;;;84.33;34.47;;;;;;;-145.18;100.00;46660.41;4991174;28;20038;-68
2022/11/15 00:39:38;;;;;;;91.37;33.90;;;;;;;-145.18;100.00;46656.50;4973813;28;20120;-68
2022/11/15 00:42:03;;;;;;;80.70;33.17;;;;;;;-145.18;100.00;46660.41;4991079;28;20042;-68
2022/11/15 00:44:29;;;;;;;82.57;34.17;;;;;;;-145.18;100.00;46660.41;4991048;28;20444;-68
2022/11/15 00:46:54;;;;;;;90.37;33.90;;;;;;;-145.18;100.00;46662.34;4990630;28;20042;-68
2022/11/15 00:49:19;;;;;;;92.63;35.00;;;;;;;-145.18;100.00;46664.31;4991078;28;20038;-67
2022/11/15 00:51:45;;;;;;;92.23;35.40;;;;;;;-145.18;100.00;46658.44;4990312;28;20077;-68
2022/11/15 00:54:10;;;;;;;92.33;34.83;;;;;;;-145.18;100.00;46652.59;4991035;28;20120;-68
2022/11/15 00:56:35;;;;;;;85.30;33.67;;;;;;;-145.18;100.00;46660.41;4990999;28;20030;-68
2022/11/15 00:59:01;;;;;;;87.63;35.23;;;;;;;-145.18;100.00;46662.34;4990844;28;20499;-68
2022/11/15 01:01:26;;;;;;;85.17;34.43;;;;;;;-145.18;100.00;46662.34;4990710;28;20030;-68
2022/11/15 01:03:51;;;;;;;93.30;35.17;;;;;;;-145.18;100.00;46654.53;4990292;28;20057;-68
2022/11/15 01:06:17;;;;;;;96.97;35.90;;;;;;;-145.18;100.00;46662.34;4991154;28;20063;-68
2022/11/15 01:08:42;;;;;;;88.83;36.13;;;;;;;-145.18;100.00;46658.44;4990495;28;20117;-68
2022/11/15 01:11:10;;;;;;;92.20;36.80;;;;;;;-145.18;100.00;46660.41;4990722;28;20439;-68
2022/11/15 01:13:37;;;;;;;93.83;36.97;;;;;;;-145.18;100.00;46658.44;4990838;28;20030;-68
2022/11/15 01:16:11;;;;;;;98.17;36.70;;;;;;;-145.18;100.00;46654.53;4990875;28;20347;-68
2022/11/15 01:18:37;;;;;;;86.10;36.93;;;;;;;-145.18;100.00;46658.44;4990414;28;20643;-68
2022/11/15 01:21:08;;;;;;;85.40;34.60;;;;;;;-145.18;100.00;46654.53;4990721;28;20276;-68
2022/11/15 01:23:33;;;;;;;83.47;35.87;;;;;;;-145.18;100.00;46660.41;4990548;28;20049;-68
2022/11/15 01:26:00;;;;;;;78.07;33.23;;;;;;;-145.18;100.00;46650.63;4990586;28;20267;-68
2022/11/15 01:28:28;;;;;;;77.43;34.93;;;;;;;-145.18;100.00;46656.50;4990544;28;20034;-68
2022/11/15 01:30:57;;;;;;;81.83;33.70;;;;;;;-145.18;100.00;46658.44;4990303;28;20358;-68
2022/11/15 01:33:23;;;;;;;86.47;35.70;;;;;;;-145.18;100.00;46656.50;4990661;28;20272;-68
2022/11/15 01:35:48;;;;;;;75.10;34.80;;;;;;;-145.18;100.00;46654.53;4972835;28;20330;-68
2022/11/15 01:38:13;;;;;;;79.37;35.67;;;;;;;-145.18;100.00;46658.44;4990365;28;20034;-68
2022/11/15 01:40:39;;;;;;;78.60;34.27;;;;;;;-145.18;100.00;46656.50;4972619;28;20043;-68
2022/11/15 01:43:24;;;;;;;79.33;33.77;;;;;;;-145.18;100.00;46658.44;4990198;28;20069;-68
2022/11/15 01:46:00;;;;;;;69.27;34.77;;;;;;;-145.18;100.00;46652.59;4990266;28;20041;-68
2022/11/15 01:48:31;;;;;;;76.03;34.93;;;;;;;-145.18;100.00;46658.44;4990421;28;20319;-68
2022/11/15 01:50:58;;;;;;;71.77;33.43;;;;;;;-145.18;100.00;46660.41;4990164;28;20339;-68
2022/11/15 01:53:25;;;;;;;77.23;36.27;;;;;;;-145.18;100.00;46656.50;4990182;28;20771;-68
2022/11/15 01:55:51;;;;;;;73.23;33.80;;;;;;;-145.18;100.00;46652.59;4990064;28;20276;-68
2022/11/15 01:58:17;;;;;;;68.83;34.20;;;;;;;-145.18;100.00;46656.50;4990004;28;20315;-68
2022/11/15 02:00:42;;;;;;;71.57;35.73;;;;;;;-145.18;100.00;46652.59;4990236;28;20279;-68
2022/11/15 02:03:08;;;;;;;64.73;34.53;;;;;;;-145.18;100.00;46656.50;4990704;28;20041;-68
2022/11/15 02:05:36;;;;;;;64.70;34.10;;;;;;;-145.18;100.00;46654.53;4976662;28;20081;-68
2022/11/15 02:08:01;;;;;;;66.30;34.40;;;;;;;-145.18;100.00;46656.50;4993877;28;20071;-68
2022/11/15 02:10:27;;;;;;;60.57;34.33;;;;;;;-145.18;100.00;46652.59;4960376;28;20276;-68
2022/11/15 02:12:54;;;;;;;69.57;34.67;;;;;;;-145.18;100.00;46656.50;4993643;28;20033;-68
2022/11/15 02:15:20;;;;;;;62.73;33.63;;;;;;;-145.18;100.00;46654.53;4993836;28;20037;-68
2022/11/15 02:17:59;;;;;;;60.23;34.03;;;;;;;-145.18;100.00;46650.63;4993470;28;20273;-68
2022/11/15 02:20:49;;;;;;;63.13;31.80;;;;;;;-145.18;100.00;46652.59;4993982;28;20482;-68
2022/11/15 02:23:29;;;;;;;69.63;34.33;;;;;;;-145.18;100.00;46654.53;4993743;28;20614;-68
2022/11/15 02:26:04;;;;;;;60.30;33.50;;;;;;;-145.18;100.00;46652.59;4993555;28;20291;-68
2022/11/15 02:28:32;;;;;;;60.47;32.73;;;;;;;-145.18;100.00;46648.69;4993606;28;20268;-68
2022/11/15 02:31:14;;;;;;;65.63;32.33;;;;;;;-145.18;100.00;46652.59;4993788;28;20268;-68
2022/11/15 02:34:15;;;;;;;58.80;31.97;;;;;;;-145.18;100.00;46654.53;4993364;28;20260;-68
2022/11/15 02:36:49;;;;;;;64.60;32.63;;;;;;;-145.18;100.00;46656.50;4989582;28;20276;-68
2022/11/15 02:39:41;;;;;;;57.63;31.97;;;;;;;-145.18;100.00;46656.50;4993605;28;20264;-68
2022/11/15 02:43:56;;;;;;;63.80;33.80;;;;;;;-145.18;100.00;46648.69;4993408;28;20849;-68
2022/11/15 02:45:01;;;;;;;60.63;32.80;;;;;;;-145.18;100.00;46650.63;4993358;28;20283;-68
2022/11/15 02:47:29;;;;;;;57.43;33.67;;;;;;;-145.18;100.00;46656.50;4985337;28;20272;-68
2022/11/15 02:50:00;;;;;;;59.40;32.60;;;;;;;-145.18;100.00;46650.63;4993180;28;20279;-68
2022/11/15 02:52:26;;;;;;;58.43;31.17;;;;;;;-145.18;100.00;46654.53;4993434;28;20276;-68
2022/11/15 02:54:59;;;;;;;54.43;30.97;;;;;;;-145.18;100.00;46660.41;4975746;28;20280;-68
2022/11/15 02:57:40;;;;;;;58.30;31.10;;;;;;;-145.18;100.00;46656.50;4993161;28;20829;-68
2022/11/15 03:00:09;;;;;;;56.83;31.27;;;;;;;-145.18;100.00;46656.50;4993509;28;20339;-68
2022/11/15 03:02:59;;;;;;;60.67;31.33;;;;;;;-145.18;100.00;46650.63;5199962;23;20660;-67
2022/11/15 03:05:53;;;;;;;56.67;32.50;;;;;;;-145.18;100.00;46646.72;4985089;28;20756;-67
2022/11/15 03:08:50;;;;;;;59.33;31.90;;;;;;;-145.18;100.00;46654.53;4981664;28;20592;-67
2022/11/15 03:11:19;;;;;;;64.57;32.07;;;;;;;-145.18;100.00;46654.53;4992269;28;20276;-67
2022/11/15 03:14:06;;;;;;;55.03;30.83;;;;;;;-145.18;100.00;46648.69;4958933;28;20279;-67
2022/11/15 03:16:37;;;;;;;61.30;32.17;;;;;;;-145.18;100.00;46650.63;4992929;28;20272;-67
2022/11/15 03:19:28;;;;;;;54.63;29.57;;;;;;;-145.18;100.00;46650.63;4992924;28;20322;-68
2022/11/15 03:21:55;;;;;;;56.53;31.17;;;;;;;-145.18;100.00;46652.59;4992528;28;20675;-67
2022/11/15 03:24:25;;;;;;;61.60;32.27;;;;;;;-145.18;100.00;46654.53;4993041;28;20776;-68
2022/11/15 03:26:53;;;;;;;53.13;30.77;;;;;;;-145.18;100.00;46652.59;4992554;28;20693;-67
2022/11/15 03:29:26;;;;;;;58.33;29.50;;;;;;;-145.18;100.00;46652.59;4992366;28;20792;-67
2022/11/15 03:32:03;;;;;;;50.57;29.67;;;;;;;-145.18;100.00;46650.63;4992208;28;20379;-67
2022/11/15 03:34:53;;;;;;;56.13;29.93;;;;;;;-145.18;100.00;46650.63;4992488;28;20267;-68
2022/11/15 03:37:22;;;;;;;52.07;28.67;;;;;;;-145.18;100.00;46650.63;4992161;28;20342;-68
2022/11/15 03:39:47;;;;;;;49.33;28.67;;;;;;;-145.18;100.00;46650.63;4992372;28;20299;-68
2022/11/15 03:42:12;;;;;;;55.83;30.57;;;;;;;-145.18;100.00;46654.53;4992529;28;20744;-67
2022/11/15 03:45:10;;;;;;;49.00;29.20;;;;;;;-145.18;100.00;46648.69;4992632;28;20038;-67
2022/11/15 03:48:01;;;;;;;48.87;28.37;;;;;;;-145.18;100.00;46650.63;4956809;28;20046;-68
2022/11/15 03:50:28;;;;;;;50.50;29.23;;;;;;;-145.18;100.00;46654.53;4992714;28;20272;-68
2022/11/15 03:52:54;;;;;;;52.90;29.20;;;;;;;-145.18;100.00;46648.69;4991993;28;20276;-67
2022/11/15 03:55:21;;;;;;;52.07;26.77;;;;;;;-145.18;100.00;46650.63;4992548;28;20268;-68
2022/11/15 03:57:49;;;;;;;50.67;27.70;;;;;;;-145.18;100.00;46650.63;4992102;28;20276;-67
2022/11/15 04:00:15;;;;;;;51.87;28.93;;;;;;;-145.18;100.00;46654.53;4992217;28;20725;-67
2022/11/15 04:02:41;;;;;;;46.53;27.30;;;;;;;-145.18;100.00;46654.53;4991401;28;20342;-68
2022/11/15 04:05:07;;;;;;;48.27;27.33;;;;;;;-145.18;100.00;46652.59;4992366;28;20640;-68
2022/11/15 04:07:32;;;;;;;48.57;28.40;;;;;;;-145.18;100.00;46648.69;4992048;28;20594;-68
2022/11/15 04:10:03;;;;;;;41.60;25.80;;;;;;;-145.18;100.00;46646.72;4991676;28;20034;-67
2022/11/15 04:12:37;;;;;;;44.10;27.37;;;;;;;-145.18;100.00;46650.63;4991829;28;20601;-67
2022/11/15 04:15:09;;;;;;;44.83;26.33;;;;;;;-145.18;100.00;46652.59;4991873;28;20803;-67
2022/11/15 04:17:45;;;;;;;49.70;27.87;;;;;;;-145.18;100.00;46652.59;4991634;28;20848;-67
2022/11/15 04:26:12;;;;;;;45.97;26.10;;;;;;;-145.18;100.00;46656.50;4991358;28;20632;-67
2022/11/15 04:29:34;;;;;;;52.10;27.40;;;;;;;-145.18;100.00;46656.50;4991492;28;20267;-67
2022/11/15 04:31:23;;;;;;;48.30;29.15;;;;;;;-145.18;100.00;46652.59;4991688;28;20267;-69
2022/11/15 04:33:49;;;;;;;45.17;28.53;;;;;;;-145.18;100.00;46652.59;4991535;28;20034;-69
2022/11/15 04:38:58;;;;;;;52.50;28.57;;;;;;;-145.18;100.00;46648.69;4991079;28;20399;-69
2022/11/15 04:41:23;;;;;;;49.97;27.47;;;;;;;-145.18;100.00;46646.72;4991696;28;20267;-69
2022/11/15 04:43:49;;;;;;;51.33;29.30;;;;;;;-145.18;100.00;46650.63;4973694;28;20038;-69
2022/11/15 04:46:14;;;;;;;53.33;29.33;;;;;;;-145.18;100.00;46652.59;4991341;28;20049;-69
2022/11/15 04:48:40;;;;;;;49.33;28.67;;;;;;;-145.18;100.00;46650.63;4989965;28;20034;-69
2022/11/15 04:51:05;;;;;;;53.07;29.23;;;;;;;-145.18;100.00;46646.72;4991584;28;20466;-69
2022/11/15 04:53:30;;;;;;;49.57;28.67;;;;;;;-145.18;100.00;46648.69;4991304;28;20065;-69
2022/11/15 04:55:56;;;;;;;42.83;27.70;;;;;;;-145.18;100.00;46650.63;4991497;28;20092;-69
2022/11/15 04:58:21;;;;;;;52.10;30.57;;;;;;;-145.18;100.00;46646.72;5003111;28;20037;-69
2022/11/15 05:00:46;;;;;;;53.90;28.77;;;;;;;-145.18;100.00;46650.63;4981237;28;20038;-69
2022/11/15 05:05:57;;;;;;;49.07;28.67;;;;;;;-145.18;100.00;46650.63;4989166;28;20122;-69
2022/11/15 05:08:23;;;;;;;51.43;28.57;;;;;;;-145.18;100.00;46646.72;4997659;28;20747;-69
2022/11/15 05:10:48;;;;;;;50.77;28.50;;;;;;;-145.18;100.00;46646.72;4991616;28;20291;-69
2022/11/15 05:13:13;;;;;;;49.30;27.80;;;;;;;-145.18;100.00;46652.59;4996602;28;20038;-69
2022/11/15 05:15:39;;;;;;;50.40;29.27;;;;;;;-145.18;100.00;46650.63;4998208;28;20056;-69
2022/11/15 05:18:04;;;;;;;52.00;27.93;;;;;;;-145.18;100.00;46650.63;4991626;28;20046;-69
2022/11/15 05:20:29;;;;;;;50.30;29.63;;;;;;;-145.18;100.00;46648.69;5002801;28;20510;-69
2022/11/15 05:22:57;;;;;;;53.37;29.17;;;;;;;-145.18;100.00;46646.72;5007441;28;20045;-69
2022/11/15 05:25:23;;;;;;;48.80;28.77;;;;;;;-145.18;100.00;46650.63;4999253;28;20041;-69
2022/11/15 05:27:49;;;;;;;51.03;28.23;;;;;;;-145.18;100.00;46652.59;4989182;28;20260;-69
2022/11/15 05:30:15;;;;;;;51.43;28.73;;;;;;;-145.18;100.00;46648.69;4970755;28;20268;-69
2022/11/15 05:32:41;;;;;;;50.97;28.93;;;;;;;-145.18;100.00;46650.63;4971106;28;20035;-70
2022/11/15 05:35:12;;;;;;;49.33;28.00;;;;;;;-145.18;100.00;46646.72;4971407;28;20268;-69
2022/11/15 05:37:37;;;;;;;50.07;27.93;;;;;;;-145.18;100.00;46644.78;4972914;28;20059;-69
2022/11/15 05:40:03;;;;;;;48.37;27.87;;;;;;;-145.18;100.00;46650.63;4974049;28;20309;-69
2022/11/15 05:42:30;;;;;;;45.50;27.80;;;;;;;-145.18;100.00;46646.72;4975097;28;20479;-69
2022/11/15 05:44:58;;;;;;;51.90;28.50;;;;;;;-145.18;100.00;46650.63;4975138;28;20050;-69
2022/11/15 05:47:27;;;;;;;51.43;28.27;;;;;;;-145.18;100.00;46648.69;4986497;28;20268;-69
2022/11/15 05:49:53;;;;;;;49.80;26.83;;;;;;;-145.18;100.00;46652.59;4996423;28;20592;-69
2022/11/15 05:52:22;;;;;;;43.70;27.27;;;;;;;-145.18;100.00;46648.69;4997645;28;20764;-69
2022/11/15 05:54:48;;;;;;;43.40;26.83;;;;;;;-145.18;100.00;46648.69;4998235;28;20255;-69
2022/11/15 05:57:15;;;;;;;54.93;29.83;;;;;;;-145.18;100.00;46650.63;5000306;28;20267;-69
2022/11/15 05:59:43;;;;;;;44.87;26.07;;;;;;;-145.18;100.00;46650.63;4994211;28;20268;-69
2022/11/15 06:02:09;;;;;;;48.97;27.10;;;;;;;-145.18;100.00;46652.59;4994102;28;20636;-69
2022/11/15 06:04:34;;;;;;;52.07;28.33;;;;;;;-145.18;100.00;46650.63;4993957;28;20287;-69
2022/11/15 06:06:59;;;;;;;48.03;25.00;;;;;;;-145.18;100.00;46652.59;4976929;28;20646;-69
2022/11/15 06:09:25;;;;;;;52.63;27.23;;;;;;;-145.18;100.00;46652.59;4994000;28;20038;-69
2022/11/15 06:11:50;;;;;;;45.13;25.63;;;;;;;-145.18;100.00;46652.59;4994281;28;20038;-69
2022/11/15 06:14:16;;;;;;;49.30;26.10;;;;;;;-145.18;100.00;46654.53;4993857;28;20041;-69
2022/11/15 06:16:41;;;;;;;45.33;25.10;;;;;;;-145.18;100.00;46654.53;4993636;28;20095;-69
2022/11/15 06:19:07;;;;;;;46.37;24.97;;;;;;;-145.18;100.00;46648.69;4993985;28;20125;-69
2022/11/15 06:21:32;;;;;;;45.63;24.23;;;;;;;-145.18;100.00;46650.63;4993977;28;20158;-69
2022/11/15 06:23:58;;;;;;;42.43;25.03;;;;;;;-145.18;100.00;46652.59;4993594;28;20034;-69
2022/11/15 06:26:23;;;;;;;43.03;23.43;;;;;;;-145.18;100.00;46652.59;4994034;28;20061;-69
2022/11/15 06:28:48;;;;;;;39.30;21.70;;;;;;;-145.18;100.00;46648.69;4993479;28;20031;-69
2022/11/15 06:31:14;;;;;;;41.20;22.97;;;;;;;-145.18;100.00;46652.59;4993904;28;20069;-69
2022/11/15 06:33:39;;;;;;;37.87;21.30;;;;;;;-145.18;100.00;46656.50;4993415;28;20049;-69
2022/11/15 06:36:08;;;;;;;44.30;21.30;;;;;;;-145.18;100.00;46652.59;4994636;28;20046;-69
2022/11/15 06:38:33;;;;;;;41.90;21.60;;;;;;;-145.18;100.00;46646.72;4979727;28;20031;-69
2022/11/15 06:41:04;;;;;;;39.67;20.77;;;;;;;-145.18;100.00;46656.50;4991814;28;20879;-69
2022/11/15 06:43:29;;;;;;;35.00;20.40;;;;;;;-145.18;100.00;46654.53;4993497;28;20038;-68
2022/11/15 06:45:55;;;;;;;40.37;20.77;;;;;;;-145.18;100.00;46660.41;4993030;28;20604;-69
2022/11/15 06:48:20;;;;;;;39.40;20.20;;;;;;;-145.18;100.00;46654.53;4992542;28;20502;-69
2022/11/15 06:50:53;;;;;;;36.37;18.70;;;;;;;-145.18;100.00;46650.63;4992601;28;20465;-69
2022/11/15 06:53:19;;;;;;;36.17;18.63;;;;;;;-145.18;100.00;46654.53;4992870;28;20620;-69
2022/11/15 06:55:45;;;;;;;34.23;19.10;;;;;;;-145.18;100.00;46654.53;4993078;28;20271;-69
2022/11/15 06:58:10;;;;;;;33.77;18.13;;;;;;;-145.18;100.00;46654.53;4993052;28;20497;-69
2022/11/15 07:00:35;;;;;;;31.40;18.87;;;;;;;-145.18;100.00;46660.41;4992685;28;20038;-69
2022/11/15 07:03:01;;;;;;;32.00;18.47;;;;;;;-145.18;100.00;46658.44;4991960;28;20097;-69
2022/11/15 07:05:26;;;;;;;37.63;18.53;;;;;;;-145.18;100.00;46662.34;4993078;28;20514;-69
2022/11/15 07:07:56;;;;;;;33.00;18.20;;;;;;;-145.18;100.00;46660.41;4992197;28;20023;-69
2022/11/15 07:10:24;;;;;;;32.07;19.13;;;;;;;-145.18;100.00;46658.44;4992718;28;20114;-69
2022/11/15 07:12:53;;;;;;;34.87;18.47;;;;;;;-145.18;100.00;46658.44;4991227;28;20597;-69
2022/11/15 07:15:21;;;;;;;30.10;18.33;;;;;;;-145.18;100.00;46662.34;4992314;28;20786;-68
2022/11/15 07:17:46;;;;;;;30.57;18.33;;;;;;;-145.18;100.00;46656.50;4992343;28;20275;-69
2022/11/15 07:20:15;;;;;;;39.00;18.20;;;;;;;-145.18;100.00;46656.50;4992925;28;20275;-68
2022/11/15 07:22:41;;;;;;;29.77;17.73;;;;;;;-145.18;100.00;46660.41;4992436;28;20035;-69
2022/11/15 07:25:08;;;;;;;31.93;18.10;;;;;;;-145.18;100.00;46660.41;4992363;28;20268;-67
2022/11/15 07:27:33;;;;;;;40.27;21.17;;;;;;;-145.18;100.00;46660.41;4992748;28;20069;-69
2022/11/15 07:29:59;;;;;;;29.97;16.40;;;;;;;-145.18;100.00;46658.44;4992275;28;20347;-69
2022/11/15 07:32:25;;;;;;;32.10;17.30;;;;;;;-145.18;100.00;46660.41;4992406;28;20026;-68
2022/11/15 07:34:50;;;;;;;32.53;17.60;;;;;;;-145.18;100.00;46666.25;4992194;28;20498;-68
2022/11/15 07:37:16;;;;;;;30.43;17.17;;;;;;;-145.18;100.00;46660.41;4992682;28;20046;-68
2022/11/15 07:39:42;;;;;;;30.53;17.20;;;;;;;-145.18;100.00;46664.31;4991981;28;20040;-68
2022/11/15 07:44:51;;;;;;;35.60;17.00;;;;;;;-145.18;100.00;46660.41;4991696;28;20418;-68
2022/11/15 07:47:16;;;;;;;37.70;16.00;;;;;;;-145.18;100.00;46662.34;4987444;28;20272;-68
2022/11/15 07:49:42;;;;;;;30.20;16.13;;;;;;;-145.18;100.00;46662.34;4991801;28;20534;-68
2022/11/15 07:52:07;;;;;;;24.80;14.93;;;;;;;-145.18;100.00;46662.34;4992186;28;20089;-68
2022/11/15 07:54:33;;;;;;;25.97;15.87;;;;;;;-145.18;100.00;46666.25;4992075;28;20045;-67
2022/11/15 07:56:58;;;;;;;26.10;16.00;;;;;;;-145.18;100.00;46662.34;4991575;28;20443;-67
2022/11/15 07:59:24;;;;;;;30.23;16.00;;;;;;;-145.18;100.00;46662.34;4974420;28;20034;-67
2022/11/15 08:01:49;;;;;;;30.30;17.10;;;;;;;-145.18;100.00;46664.31;4990824;28;20105;-68
2022/11/15 08:04:14;;;;;;;30.27;16.83;;;;;;;-145.18;100.00;46660.41;4991892;28;20056;-68
2022/11/15 08:06:40;;;;;;;28.57;14.40;;;;;;;-145.18;100.00;46666.25;4991803;28;20026;-68
2022/11/15 08:09:05;;;;;;;26.90;15.40;;;;;;;-145.18;100.00;46664.31;4974245;28;20046;-68
2022/11/15 08:11:32;;;;;;;26.67;14.40;;;;;;;-145.18;100.00;46662.34;4991702;28;20047;-68
2022/11/15 08:13:57;;;;;;;23.03;14.00;;;;;;;-145.18;100.00;46660.41;4991257;28;20311;-68
2022/11/15 08:16:22;;;;;;;24.50;12.67;;;;;;;-145.18;100.00;46668.22;4991688;28;20117;-68
2022/11/15 08:18:48;;;;;;;27.10;12.57;;;;;;;-145.18;100.00;46664.31;4991299;28;20038;-68
2022/11/15 08:21:18;;;;;;;26.50;13.17;;;;;;;-145.18;100.00;46666.25;4991828;28;20077;-68
2022/11/15 08:23:44;;;;;;;20.00;10.97;;;;;;;-145.18;100.00;46668.22;4973657;28;20040;-68
2022/11/15 08:26:09;;;;;;;25.10;11.77;;;;;;;-145.18;100.00;46670.16;4991151;28;20359;-68
2022/11/15 08:28:35;;;;;;;20.03;10.10;;;;;;;-145.18;100.00;46668.22;4991508;28;20721;-68
2022/11/15 08:31:01;;;;;;;22.50;10.33;;;;;;;-145.18;100.00;46670.16;4991510;28;20050;-68
2022/11/15 08:33:27;;;;;;;19.10;10.73;;;;;;;-145.18;100.00;46668.22;4991243;28;20122;-68
2022/11/15 08:35:56;;;;;;;16.70;11.93;;;;;;;-145.18;100.00;46664.31;4991071;28;20037;-68
2022/11/15 08:38:22;;;;;;;22.47;13.10;;;;;;;-145.18;100.00;46681.88;4991035;28;20486;-67
2022/11/15 08:40:47;;;;;;;22.00;12.90;;;;;;;-145.18;100.00;46672.13;4991300;28;20299;-68
2022/11/15 08:43:12;;;;;;;20.87;11.07;;;;;;;-145.18;100.00;46670.16;4991318;28;20053;-68
2022/11/15 08:45:38;;;;;;;24.30;11.93;;;;;;;-145.18;100.00;46672.13;4991219;28;20045;-68
2022/11/15 08:48:03;;;;;;;19.10;11.93;;;;;;;-145.18;100.00;46672.13;4990586;28;20039;-68
2022/11/15 08:50:29;;;;;;;17.70;12.30;;;;;;;-145.18;100.00;46676.03;4973759;28;20023;-68
2022/11/15 08:52:55;;;;;;;24.47;12.27;;;;;;;-145.18;100.00;46670.16;4990838;28;20462;-68
2022/11/15 08:55:20;;;;;;;23.47;13.03;;;;;;;-145.18;100.00;46677.97;4990900;28;20828;-67
2022/11/15 08:57:45;;;;;;;19.23;11.83;;;;;;;-145.18;100.00;46674.06;4990618;28;20487;-68
2022/11/15 09:00:13;;;;;;;14.47;10.17;;;;;;;-145.18;100.00;46676.03;4991014;28;20107;-68
2022/11/15 09:02:41;;;;;;;20.03;11.30;;;;;;;-145.18;100.00;46679.94;4988466;28;20050;-68
2022/11/15 09:05:07;;;;;;;20.27;10.43;;;;;;;-145.18;100.00;46676.03;4990560;28;20276;-68
2022/11/15 09:07:32;;;;;;;17.13;9.87;;;;;;;-145.18;100.00;46677.97;4990878;28;20275;-68
2022/11/15 09:09:58;;;;;;;17.30;9.77;;;;;;;-145.18;100.00;46676.03;4988051;28;20671;-68
2022/11/15 09:12:24;;;;;;;22.97;9.40;;;;;;;-145.18;100.00;46677.97;4990340;28;20093;-68
2022/11/15 09:14:49;;;;;;;12.67;8.80;;;;;;;-145.18;100.00;46676.03;4990589;28;20050;-68
2022/11/15 09:17:14;;;;;;;16.90;8.93;;;;;;;-145.18;100.00;46679.94;4987588;28;20042;-68
2022/11/15 09:19:40;;;;;;;14.07;8.30;;;;;;;-145.18;100.00;46681.88;4990655;28;20034;-68
2022/11/15 09:22:07;;;;;;;15.63;9.23;;;;;;;-145.18;100.00;46677.97;4990637;28;20038;-68
2022/11/15 09:24:32;;;;;;;20.03;8.73;;;;;;;-145.18;100.00;46683.84;4990020;28;20057;-68
2022/11/15 09:26:58;;;;;;;13.97;7.97;;;;;;;-145.18;100.00;46681.88;4973096;28;20050;-68
2022/11/15 09:29:23;;;;;;;14.43;8.97;;;;;;;-145.18;100.00;46681.88;4990420;28;20034;-68
2022/11/15 09:31:48;;;;;;;12.40;7.87;;;;;;;-145.18;100.00;46683.84;4990582;28;20031;-68
2022/11/15 09:34:14;;;;;;;15.37;6.83;;;;;;;-145.18;100.00;46683.84;4990608;28;20093;-68
2022/11/15 09:36:39;;;;;;;15.30;7.20;;;;;;;-145.18;100.00;46687.75;4990797;28;20045;-68
2022/11/15 09:39:05;;;;;;;14.37;6.57;;;;;;;-145.18;100.00;46685.78;4990158;28;20037;-68
2022/11/15 09:41:39;;;;;;;14.10;6.60;;;;;;;-145.18;100.00;46685.78;4990726;28;20040;-68
2022/11/15 09:44:26;;;;;;;11.37;6.00;;;;;;;-145.18;100.00;46687.75;4990159;28;20053;-68
2022/11/15 09:47:00;;;;;;;14.33;6.33;;;;;;;-145.18;100.00;46687.75;4990465;28;20061;-68
2022/11/15 09:49:26;;;;;;;7.50;5.07;;;;;;;-145.18;100.00;46691.66;4990502;28;20553;-68
2022/11/15 09:51:53;;;;;;;9.63;4.53;;;;;;;-145.18;100.00;46687.75;4990105;28;20042;-68
2022/11/15 09:54:28;;;;;;;11.93;5.37;;;;;;;-145.18;100.00;46681.88;4990060;28;20034;-68
2022/11/15 09:56:56;;;;;;;11.48;5.10;;;;;;;-145.18;100.00;46668.22;4990483;28;20118;-68
2022/11/15 09:59:33;;;;;;;8.07;4.73;;;;;;;-145.18;100.00;46656.50;4990411;28;20034;-68
2022/11/15 10:02:27;;;;;;;9.37;4.43;;;;;;;-145.18;100.00;46605.69;4990014;28;20034;-68
2022/11/15 10:04:53;;;;;;;12.63;5.20;;;;;;;-145.18;100.00;46584.22;4989962;28;20570;-68
2022/11/15 10:07:26;;;;;;;6.90;4.27;;;;;;;-145.18;100.00;46570.53;4990598;28;20045;-68
2022/11/15 10:09:57;;;;;;;9.17;4.00;;;;;;;-145.18;100.00;46568.59;4990086;28;20037;-68
2022/11/15 10:12:23;;;;;;;6.73;3.63;;;;;;;-145.18;100.00;46576.41;4990249;28;20081;-68
2022/11/15 10:14:55;;;;;;;8.00;3.70;;;;;;;-145.18;100.00;46576.41;4990143;28;20113;-68
2022/11/15 10:17:54;;;;;;;9.33;3.73;;;;;;;-145.18;100.00;46582.25;4997818;28;20033;-68
2022/11/15 10:20:23;;;;;;;6.33;3.20;;;;;;;-145.18;100.00;46584.22;5009775;28;20022;-68
2022/11/15 10:22:55;;;;;;;11.50;3.20;;;;;;;-145.18;100.00;46586.16;5009438;28;20026;-68
2022/11/15 10:25:31;;;;;;;6.07;3.07;;;;;;;-145.18;100.00;46588.13;5012172;28;20117;-68
2022/11/15 10:28:16;;;;;;;9.63;3.77;;;;;;;-145.18;100.00;46590.06;5013121;28;20504;-68
2022/11/15 10:30:47;;;;;;;9.93;3.50;;;;;;;-145.18;100.00;46603.75;5013445;28;20449;-69
2022/11/15 10:33:12;;;;;;;6.97;3.27;;;;;;;-145.18;100.00;46603.75;5013437;28;20038;-68
2022/11/15 10:35:37;;;;;;;6.67;2.77;;;;;;;-145.18;100.00;46609.59;5013310;28;20022;-68
2022/11/15 10:38:10;;;;;;;6.97;2.57;;;;;;;-145.18;100.00;46607.66;5012967;28;20034;-68
2022/11/15 10:40:38;;;;;;;7.73;3.00;;;;;;;-145.18;100.00;46597.88;5013112;28;20042;-68
2022/11/15 10:43:15;;;;;;;9.00;3.07;;;;;;;-145.18;100.00;46613.50;5012928;28;20042;-68
2022/11/15 10:45:41;;;;;;;10.70;2.70;;;;;;;-145.18;100.00;46615.47;5012897;28;20526;-68
2022/11/15 10:48:12;;;;;;;11.03;2.50;;;;;;;-145.18;100.00;46623.28;5013010;28;20038;-68
2022/11/15 10:50:39;;;;;;;5.90;2.50;;;;;;;-145.18;100.00;46619.38;5013040;28;20114;-68
2022/11/15 10:53:12;;;;;;;11.37;2.40;;;;;;;-145.18;100.00;46635.00;5012896;28;20033;-68
2022/11/15 10:55:40;;;;;;;3.73;1.50;;;;;;;-145.18;100.00;46642.81;4993094;28;20030;-68
2022/11/15 10:58:27;;;;;;;10.90;2.10;;;;;;;-145.18;100.00;46648.69;4991701;28;20034;-68
2022/11/15 11:00:53;;;;;;;7.67;2.30;;;;;;;-145.18;100.00;46666.25;4992817;28;20092;-68
2022/11/15 11:03:34;;;;;;;6.23;2.47;;;;;;;-145.18;100.00;46668.22;4992497;28;20058;-68
2022/11/15 11:06:06;;;;;;;8.17;1.63;;;;;;;-145.18;100.00;46677.97;4992781;28;20030;-68
2022/11/15 11:08:31;;;;;;;8.40;2.13;;;;;;;-145.18;100.00;46697.50;4992604;28;20072;-68
2022/11/15 11:10:59;;;;;;;5.80;2.10;;;;;;;-145.18;100.00;46693.59;4992834;28;20035;-68
2022/11/15 11:13:31;;;;;;;5.77;1.80;;;;;;;-145.18;100.00;46703.38;4992994;28;20046;-68
2022/11/15 11:16:14;;;;;;;6.70;1.57;;;;;;;-145.18;100.00;46689.69;4992972;28;20084;-68
2022/11/15 11:19:07;;;;;;;4.80;1.47;;;;;;;-145.18;100.00;46703.38;4992770;28;20110;-68